Time;durP1;ratioP1;P1;durP2;ratioP2;P2;SDS_P1;SDS_P2;PMS_P1;PMS_P2;Temp;Humidity;BMP_temperature;BMP_pressure;BME280_temperature;BME280_humidity;BME280_pressure;Samples;Min_cycle;Max_cycle;Signal;HPM_P1;HPM_P2
2022/01/13 00:00:06;;;;;;;29.57;13.83;;;;;;;-8.72;67.11;103096.21;1769563;80;25731;-64
2022/01/13 00:02:38;;;;;;;27.48;12.40;;;;;;;-8.66;66.83;103083.33;1760175;80;25983;-64
2022/01/13 00:05:06;;;;;;;28.60;12.82;;;;;;;-8.57;66.82;103084.43;1754268;80;25704;-63
2022/01/13 00:07:35;;;;;;;33.85;13.13;;;;;;;-8.50;66.59;103095.09;1708383;84;25656;-63
2022/01/13 00:10:05;;;;;;;24.55;12.13;;;;;;;-8.43;66.36;103096.53;1708126;84;25772;-63
2022/01/13 00:12:37;;;;;;;30.52;12.63;;;;;;;-8.41;66.19;103095.72;1714649;82;25859;-64
2022/01/13 00:15:19;;;;;;;26.27;13.22;;;;;;;-8.38;66.03;103097.56;1747802;80;27472;-64
2022/01/13 00:20:20;;;;;;;25.05;12.50;;;;;;;-8.30;65.99;103107.80;1740563;81;25848;-63
2022/01/13 00:25:21;;;;;;;53.28;17.70;;;;;;;-8.20;65.83;103111.53;1697237;83;25919;-63
2022/01/13 00:27:54;;;;;;;49.85;18.70;;;;;;;-8.15;65.92;103106.43;1741090;81;27332;-63
2022/01/13 00:30:21;;;;;;;42.05;15.95;;;;;;;-8.09;65.82;103105.28;1758648;81;25703;-63
2022/01/13 00:32:48;;;;;;;42.33;19.40;;;;;;;-8.07;65.65;103107.52;1755821;81;25860;-63
2022/01/13 00:35:15;;;;;;;40.92;17.02;;;;;;;-8.09;65.47;103107.48;1756617;81;26754;-63
2022/01/13 00:37:41;;;;;;;32.25;16.48;;;;;;;-8.12;65.29;103099.99;1759619;81;26268;-63
2022/01/13 00:40:11;;;;;;;38.42;16.02;;;;;;;-8.09;65.24;103103.56;1759116;81;27486;-63
2022/01/13 00:42:38;;;;;;;35.15;18.05;;;;;;;-8.05;65.39;103104.53;1737980;81;25917;-63
2022/01/13 00:45:06;;;;;;;35.08;16.73;;;;;;;-7.99;65.39;103105.12;1767297;81;25796;-63
2022/01/13 00:47:35;;;;;;;36.10;16.32;;;;;;;-8.03;65.10;103106.33;1728813;82;25837;-63
2022/01/13 00:50:04;;;;;;;41.70;18.42;;;;;;;-8.01;65.10;103106.36;1709861;83;25645;-63
2022/01/13 00:52:31;;;;;;;29.65;15.23;;;;;;;-8.04;64.72;103095.41;1705745;82;27435;-63
2022/01/13 00:55:07;;;;;;;41.18;16.67;;;;;;;-8.09;64.74;103108.80;1749292;82;25718;-63
2022/01/13 00:57:32;;;;;;;;;;;;;;;-8.14;64.69;103105.59;1748420;80;25461;-63
2022/01/13 01:00:00;;;;;;;34.35;15.40;;;;;;;-8.13;64.76;103104.31;1743718;82;25760;-63
2022/01/13 01:02:27;;;;;;;32.93;14.98;;;;;;;-8.09;64.67;103110.50;1740108;81;25736;-63
2022/01/13 01:04:57;;;;;;;30.45;14.75;;;;;;;-8.06;64.87;103102.76;1746580;81;27477;-63
2022/01/13 01:07:26;;;;;;;33.13;14.80;;;;;;;-8.03;64.50;103099.80;1754151;81;25694;-63
2022/01/13 01:09:57;;;;;;;28.62;13.62;;;;;;;-8.03;64.29;103104.16;1754127;81;25735;-63
2022/01/13 01:12:22;;;;;;;28.92;13.45;;;;;;;-8.05;64.34;103097.56;1752566;81;25808;-63
2022/01/13 01:14:55;;;;;;;31.57;13.88;;;;;;;-8.07;64.23;103092.71;1754728;81;25925;-63
2022/01/13 01:17:18;;;;;;;26.10;12.35;;;;;;;-8.07;64.31;103090.53;1753413;81;27493;-63
2022/01/13 01:19:49;;;;;;;29.87;14.43;;;;;;;-8.11;64.37;103101.33;1754442;81;25660;-63
2022/01/13 01:27:41;;;;;;;29.82;14.33;;;;;;;-8.24;64.20;103084.45;1753030;81;25780;-63
2022/01/13 01:30:14;;;;;;;34.27;12.78;;;;;;;-8.27;64.30;103084.36;1756304;81;27716;-63
2022/01/13 01:32:36;;;;;;;34.60;13.25;;;;;;;-8.28;64.39;103085.19;1769057;80;25753;-63
2022/01/13 01:35:12;;;;;;;28.45;14.60;;;;;;;-8.26;64.50;103082.64;1745739;81;25782;-63
2022/01/13 01:37:33;;;;;;;36.05;13.40;;;;;;;-8.29;64.21;103084.72;1745135;81;25789;-63
2022/01/13 01:40:01;;;;;;;27.20;13.25;;;;;;;-8.26;64.28;103080.03;1740049;82;25795;-63
2022/01/13 01:42:29;;;;;;;32.05;14.47;;;;;;;-8.27;64.13;103076.52;1741246;81;27856;-63
2022/01/13 01:44:58;;;;;;;32.25;14.53;;;;;;;-8.28;64.05;103078.66;1744713;81;27236;-63
2022/01/13 01:47:30;;;;;;;35.40;13.48;;;;;;;-8.31;64.08;103070.77;1752160;81;25482;-63
2022/01/13 01:50:09;;;;;;;31.27;14.03;;;;;;;-8.28;64.17;103074.75;1771530;81;25757;-63
2022/01/13 01:52:30;;;;;;;31.65;13.20;;;;;;;-8.26;64.26;103071.77;1767276;81;25846;-62
2022/01/13 01:54:57;;;;;;;28.87;13.45;;;;;;;-8.22;64.29;103072.33;1754352;81;27459;-63
2022/01/13 01:57:26;;;;;;;43.92;15.93;;;;;;;-8.17;64.19;103073.75;1755884;81;26351;-63
2022/01/13 01:59:54;;;;;;;30.40;14.25;;;;;;;-8.13;64.31;103070.80;1760529;81;25795;-63
2022/01/13 02:02:28;;;;;;;29.20;14.30;;;;;;;-8.14;64.20;103067.72;1763497;81;25803;-63
2022/01/13 02:04:55;;;;;;;31.45;13.68;;;;;;;-8.10;64.26;103059.10;1704703;84;25833;-62
2022/01/13 02:07:22;;;;;;;30.57;14.53;;;;;;;-8.08;64.30;103068.77;1681454;85;27498;-63
2022/01/13 02:09:52;;;;;;;33.85;14.98;;;;;;;-8.03;64.42;103064.97;1681890;85;25721;-63
2022/01/13 02:12:33;;;;;;;41.08;15.53;;;;;;;-7.96;64.52;103068.59;1702653;84;25746;-63
2022/01/13 02:15:04;;;;;;;29.23;13.88;;;;;;;-7.98;64.36;103066.39;1699869;84;25799;-63
2022/01/13 02:17:28;;;;;;;39.15;17.55;;;;;;;-7.91;64.64;103076.15;1699832;83;25716;-63
2022/01/13 02:19:58;;;;;;;30.70;14.35;;;;;;;-7.86;64.39;103083.27;1711657;82;27460;-63
2022/01/13 02:22:26;;;;;;;28.80;13.43;;;;;;;-7.77;64.44;103081.73;1758729;80;25791;-63
2022/01/13 02:24:53;;;;;;;29.10;13.62;;;;;;;-7.71;64.40;103079.25;1763016;80;25771;-63
2022/01/13 02:27:23;;;;;;;30.50;15.65;;;;;;;-7.65;64.57;103071.55;1741527;82;26203;-63
2022/01/13 02:29:50;;;;;;;33.38;15.28;;;;;;;-7.59;64.60;103070.82;1726449;82;25783;-63
2022/01/13 02:32:18;;;;;;;38.23;16.32;;;;;;;-7.53;64.71;103070.09;1728790;82;27470;-63
2022/01/13 02:34:46;;;;;;;40.25;18.25;;;;;;;-7.47;64.66;103063.28;1705148;83;25711;-63
2022/01/13 02:37:16;;;;;;;50.10;19.60;;;;;;;-7.44;64.67;103065.08;1737543;81;25656;-63
2022/01/13 02:39:43;;;;;;;44.65;19.37;;;;;;;-7.39;64.67;103065.65;1736826;82;25786;-62
2022/01/13 02:42:14;;;;;;;47.03;18.65;;;;;;;-7.33;64.64;103062.70;1706108;83;25479;-63
2022/01/13 02:44:53;;;;;;;37.28;16.45;;;;;;;-7.34;64.41;103074.00;1749857;81;28442;-62
2022/01/13 02:47:35;;;;;;;45.28;15.48;;;;;;;-7.32;64.14;103073.22;1748899;81;25843;-62
2022/01/13 02:49:50;;;;;;;33.13;14.63;;;;;;;-7.39;63.44;103072.59;1703913;83;25704;-63
2022/01/13 02:52:19;;;;;;;34.55;15.38;;;;;;;-7.45;63.29;103074.66;1741800;81;26617;-63
2022/01/13 02:54:47;;;;;;;34.80;15.40;;;;;;;-7.54;63.30;103071.83;1750291;80;25896;-62
2022/01/13 02:57:13;;;;;;;34.43;17.15;;;;;;;-7.58;63.44;103064.34;1752554;80;27481;-62
2022/01/13 02:59:40;;;;;;;32.35;16.62;;;;;;;-7.62;63.34;103070.33;1754307;81;25698;-62
2022/01/13 03:02:07;;;;;;;35.50;16.35;;;;;;;-7.60;63.54;103067.74;1768162;80;25705;-63
2022/01/13 03:04:39;;;;;;;31.55;15.28;;;;;;;-7.49;63.88;103070.64;1774989;80;25831;-62
2022/01/13 03:07:05;;;;;;;30.75;16.82;;;;;;;-7.37;63.92;103075.27;1770491;80;25746;-62
2022/01/13 03:09:32;;;;;;;34.38;15.18;;;;;;;-7.27;63.94;103070.27;1769962;81;27465;-62
2022/01/13 03:12:01;;;;;;;41.98;17.45;;;;;;;-7.15;63.74;103071.41;1766826;80;25536;-62
2022/01/13 03:14:28;;;;;;;34.58;16.10;;;;;;;-7.08;63.29;103067.63;1718280;81;26346;-63
2022/01/13 03:16:54;;;;;;;34.08;15.25;;;;;;;-7.12;62.96;103063.20;1777450;79;25787;-62
2022/01/13 03:19:22;;;;;;;45.43;15.68;;;;;;;-7.13;62.77;103063.17;1762469;81;25698;-62
2022/01/13 03:21:53;;;;;;;29.05;13.98;;;;;;;-7.19;62.69;103061.30;1770326;80;27450;-62
2022/01/13 03:24:20;;;;;;;34.30;15.38;;;;;;;-7.28;62.56;103066.32;1782734;80;25712;-62
2022/01/13 03:26:49;;;;;;;34.75;16.30;;;;;;;-7.42;62.73;103063.39;1787752;79;26536;-62
2022/01/13 03:29:21;;;;;;;37.42;15.45;;;;;;;-7.49;62.92;103058.88;1715084;83;25755;-61
2022/01/13 03:31:49;;;;;;;37.88;15.40;;;;;;;-7.53;63.01;103058.33;1769112;80;25784;-62
2022/01/13 03:34:18;;;;;;;35.10;17.40;;;;;;;-7.58;63.13;103056.50;1778922;80;27467;-62
2022/01/13 03:36:49;;;;;;;32.15;15.90;;;;;;;-7.57;63.23;103056.06;1781543;80;25789;-62
2022/01/13 03:39:17;;;;;;;32.25;14.70;;;;;;;-7.59;63.12;103048.60;1767379;80;25803;-62
2022/01/13 03:41:45;;;;;;;35.00;16.70;;;;;;;-7.62;63.10;103044.63;1723513;82;26115;-62
2022/01/13 03:44:27;;;;;;;41.33;16.85;;;;;;;-7.64;63.21;103041.09;1713516;83;25917;-62
2022/01/13 03:46:43;;;;;;;34.45;16.75;;;;;;;-7.61;63.31;103047.67;1711195;83;27555;-62
2022/01/13 03:49:10;;;;;;;38.88;16.65;;;;;;;-7.61;63.42;103040.73;1705594;83;25615;-63
2022/01/13 03:52:03;;;;;;;47.13;15.60;;;;;;;-7.61;63.29;103043.34;1725468;82;25823;-62
2022/01/13 03:54:39;;;;;;;45.30;16.77;;;;;;;-7.63;63.30;103048.09;1774930;80;26977;-62
2022/01/13 03:57:27;;;;;;;43.35;16.48;;;;;;;-7.66;63.37;103048.00;1775086;80;25773;-62
2022/01/13 04:00:39;;;;;;;39.53;16.20;;;;;;;-7.62;63.50;103049.86;1771566;80;27462;-62
2022/01/13 04:03:01;;;;;;;39.05;16.23;;;;;;;-7.62;63.40;103047.24;1730354;80;25929;-62
2022/01/13 04:05:28;;;;;;;45.17;16.82;;;;;;;-7.61;63.36;103038.12;1767347;80;25638;-62
2022/01/13 04:07:56;;;;;;;40.00;16.48;;;;;;;-7.55;63.25;103041.30;1767430;80;26161;-62
2022/01/13 04:10:53;;;;;;;33.25;17.25;;;;;;;-7.48;63.31;103056.28;1728565;82;25778;-63
2022/01/13 04:13:43;;;;;;;30.97;13.98;;;;;;;-7.44;63.23;103047.64;1745295;82;27419;-63
2022/01/13 04:15:52;;;;;;;40.10;16.02;;;;;;;-7.44;63.04;103042.85;1741276;82;25423;-63
2022/01/13 04:18:19;;;;;;;35.98;15.45;;;;;;;-7.47;63.06;103041.46;1745489;81;25812;-63
2022/01/13 04:20:45;;;;;;;35.13;16.52;;;;;;;-7.47;62.99;103043.67;1754620;80;25806;-62
2022/01/13 04:23:12;;;;;;;35.17;16.30;;;;;;;-7.47;62.97;103046.28;1775932;80;25832;-63
2022/01/13 04:25:45;;;;;;;36.08;16.87;;;;;;;-7.44;63.05;103045.47;1752056;81;27469;-63
2022/01/13 04:28:14;;;;;;;40.88;19.17;;;;;;;-7.41;63.06;103046.86;1740894;81;25719;-62
2022/01/13 04:33:08;;;;;;;44.08;19.10;;;;;;;-7.32;63.04;103050.98;1708041;84;25898;-63
2022/01/13 04:35:35;;;;;;;38.58;18.15;;;;;;;-7.34;63.01;103040.01;1732903;82;25864;-63
2022/01/13 04:38:03;;;;;;;45.35;17.10;;;;;;;-7.39;62.70;103049.95;1708187;83;27527;-63
2022/01/13 04:40:30;;;;;;;53.87;18.70;;;;;;;-7.46;62.76;103041.52;1733168;82;25631;-62
2022/01/13 04:42:57;;;;;;;44.95;17.12;;;;;;;-7.57;62.73;103049.09;1754761;80;25754;-62
2022/01/13 04:45:25;;;;;;;36.48;17.80;;;;;;;-7.65;62.92;103044.11;1720515;83;25803;-63
2022/01/13 04:47:54;;;;;;;45.85;18.35;;;;;;;-7.76;63.15;103041.69;1728908;83;25960;-62
2022/01/13 04:50:25;;;;;;;53.15;17.70;;;;;;;-7.87;63.45;103044.91;1754480;81;27444;-63
2022/01/13 04:52:52;;;;;;;47.67;19.02;;;;;;;-7.94;63.78;103043.00;1774741;80;25689;-63
2022/01/13 04:55:29;;;;;;;38.90;18.90;;;;;;;-7.96;63.96;103051.62;1774980;80;25789;-63
2022/01/13 04:57:55;;;;;;;37.65;16.82;;;;;;;-8.01;64.09;103042.36;1772142;80;25856;-64
2022/01/13 05:00:23;;;;;;;43.00;20.75;;;;;;;-8.07;64.15;103041.77;1759463;81;25703;-63
2022/01/13 05:02:50;;;;;;;46.50;19.77;;;;;;;-8.09;64.28;103041.28;1758885;81;28175;-63
2022/01/13 05:05:21;;;;;;;35.25;17.02;;;;;;;-8.12;64.34;103044.70;1759520;80;25825;-63
2022/01/13 05:07:49;;;;;;;35.83;17.07;;;;;;;-8.16;64.83;103046.80;1737884;81;25707;-63
2022/01/13 05:10:16;;;;;;;37.85;18.70;;;;;;;-8.20;64.93;103052.77;1759758;81;26613;-63
2022/01/13 05:12:53;;;;;;;40.38;19.92;;;;;;;-8.23;64.93;103053.98;1744756;80;25694;-63
2022/01/13 05:15:21;;;;;;;40.00;18.52;;;;;;;-8.26;65.04;103060.45;1731651;82;27468;-63
2022/01/13 05:18:02;;;;;;;37.33;19.92;;;;;;;-8.25;65.01;103065.70;1748045;80;25829;-62
2022/01/13 05:20:21;;;;;;;44.15;20.45;;;;;;;-8.19;65.13;103059.33;1692591;83;25756;-62
2022/01/13 05:22:48;;;;;;;43.05;20.52;;;;;;;-8.07;65.19;103046.13;1697232;83;25850;-62
2022/01/13 05:25:17;;;;;;;44.35;19.82;;;;;;;-7.95;65.09;103052.08;1708485;82;25764;-63
2022/01/13 05:27:45;;;;;;;51.10;20.32;;;;;;;-7.93;64.70;103039.95;1709662;83;27443;-62
2022/01/13 05:30:17;;;;;;;49.95;22.20;;;;;;;-7.96;64.61;103042.47;1742684;81;25800;-63
2022/01/13 05:32:47;;;;;;;47.30;19.45;;;;;;;-7.89;65.09;103040.50;1709763;83;25944;-61
2022/01/13 05:35:16;;;;;;;47.50;20.23;;;;;;;-7.77;64.89;103033.37;1705981;82;26478;-62
2022/01/13 05:37:45;;;;;;;46.23;19.85;;;;;;;-7.75;64.44;103049.95;1708482;82;25793;-62
2022/01/13 05:40:13;;;;;;;46.45;19.98;;;;;;;-7.76;63.97;103046.91;1701559;83;27462;-62
2022/01/13 05:42:41;;;;;;;44.63;21.97;;;;;;;-7.74;64.06;103060.87;1751949;80;25815;-61
2022/01/13 05:45:15;;;;;;;61.37;22.02;;;;;;;-7.72;63.98;103070.95;1764767;80;25768;-62
2022/01/13 05:47:38;;;;;;;47.80;20.92;;;;;;;-7.71;63.87;103054.42;1763911;81;26349;-62
2022/01/13 05:50:06;;;;;;;35.08;18.92;;;;;;;-7.69;63.79;103056.66;1707304;83;25782;-62
2022/01/13 05:52:33;;;;;;;52.45;24.82;;;;;;;-7.67;63.70;103056.28;1698107;84;27493;-62
2022/01/13 05:55:07;;;;;;;54.00;23.18;;;;;;;-7.67;63.58;103058.89;1697892;82;25789;-62
2022/01/13 05:57:34;;;;;;;31.17;17.37;;;;;;;-7.63;63.82;103057.23;1746526;81;25731;-62
2022/01/13 06:00:01;;;;;;;47.00;21.65;;;;;;;-7.59;63.53;103057.75;1742359;81;25807;-62
2022/01/13 06:02:29;;;;;;;47.75;22.17;;;;;;;-7.55;63.31;103044.79;1718090;83;25776;-62
2022/01/13 06:04:56;;;;;;;42.70;21.00;;;;;;;-7.53;63.22;103037.41;1725049;81;27477;-61
2022/01/13 06:07:23;;;;;;;46.35;20.40;;;;;;;-7.58;63.08;103043.43;1709161;82;25765;-62
2022/01/13 06:09:50;;;;;;;41.98;19.77;;;;;;;-7.64;62.90;103060.25;1706472;84;25773;-63
2022/01/13 06:12:31;;;;;;;40.15;18.77;;;;;;;-7.67;62.84;103046.23;1676163;85;26608;-63
2022/01/13 06:14:49;;;;;;;40.03;19.45;;;;;;;-7.76;63.02;103045.60;1703926;83;25759;-62
2022/01/13 06:17:15;;;;;;;40.60;20.37;;;;;;;-7.80;63.02;103047.66;1703402;84;26896;-62
2022/01/13 06:19:45;;;;;;;47.33;19.00;;;;;;;-7.83;62.95;103044.97;1703298;82;25806;-62
2022/01/13 06:22:12;;;;;;;39.30;18.60;;;;;;;-7.91;62.90;103043.05;1703528;84;25666;-62
2022/01/13 06:24:42;;;;;;;38.30;18.65;;;;;;;-7.98;63.05;103038.53;1705462;83;26583;-62
2022/01/13 06:27:09;;;;;;;46.13;20.72;;;;;;;-8.04;63.19;103028.80;1705745;84;25731;-62
2022/01/13 06:29:36;;;;;;;47.05;19.80;;;;;;;-8.10;63.30;103012.98;1705808;83;27492;-62
2022/01/13 06:32:05;;;;;;;48.28;20.70;;;;;;;-8.14;63.30;103012.87;1705676;83;25850;-62
2022/01/13 06:34:33;;;;;;;48.95;20.68;;;;;;;-8.18;63.55;103010.17;1704380;82;25778;-62
2022/01/13 06:37:01;;;;;;;45.20;21.05;;;;;;;-8.23;63.94;103006.97;1705718;84;25752;-62
2022/01/13 06:39:28;;;;;;;48.80;20.52;;;;;;;-8.21;63.81;102991.83;1705784;84;25842;-62
2022/01/13 06:41:58;;;;;;;44.77;21.42;;;;;;;-8.20;64.06;102975.29;1707980;82;27455;-62
2022/01/13 06:44:27;;;;;;;49.42;22.20;;;;;;;-8.20;64.14;102980.52;1708590;83;25803;-63
2022/01/13 06:46:54;;;;;;;59.10;23.15;;;;;;;-8.19;64.25;102976.19;1696973;82;25520;-62
2022/01/13 06:49:22;;;;;;;43.05;20.88;;;;;;;-8.15;64.20;102987.16;1705795;82;26440;-63
2022/01/13 06:51:49;;;;;;;50.17;20.82;;;;;;;-8.07;64.28;102982.13;1704825;82;25721;-62
2022/01/13 06:54:19;;;;;;;45.05;22.67;;;;;;;-7.99;64.21;102983.20;1704955;84;27495;-63
2022/01/13 06:56:45;;;;;;;49.63;22.52;;;;;;;-7.91;64.13;102976.42;1703147;83;25731;-61
2022/01/13 06:59:17;;;;;;;42.80;18.87;;;;;;;-7.85;64.05;102974.39;1684915;84;25749;-62
2022/01/13 07:01:45;;;;;;;48.95;23.77;;;;;;;-7.81;63.90;102976.64;1681753;83;25838;-61
2022/01/13 07:04:13;;;;;;;50.33;21.68;;;;;;;-7.79;63.88;102981.05;1698227;82;25834;-62
2022/01/13 07:06:42;;;;;;;60.83;24.20;;;;;;;-7.79;63.68;102987.59;1713298;82;27446;-62
2022/01/13 07:09:13;;;;;;;58.30;24.52;;;;;;;-7.79;63.65;102986.72;1713683;83;25857;-61
2022/01/13 07:11:42;;;;;;;56.77;23.05;;;;;;;-7.74;63.86;102991.61;1720504;82;25813;-61
2022/01/13 07:14:09;;;;;;;56.80;24.18;;;;;;;-7.68;63.68;102994.80;1708017;83;25878;-62
2022/01/13 07:16:36;;;;;;;48.00;22.17;;;;;;;-7.66;63.52;103009.66;1705016;83;25754;-62
2022/01/13 07:19:07;;;;;;;44.77;22.85;;;;;;;-7.65;63.51;103007.52;1704654;83;27484;-61
2022/01/13 07:21:34;;;;;;;52.15;22.93;;;;;;;-7.65;63.38;103003.59;1703692;83;25801;-62
2022/01/13 07:24:01;;;;;;;54.38;24.47;;;;;;;-7.67;63.39;102997.47;1699612;83;25714;-62
2022/01/13 07:26:30;;;;;;;50.88;21.52;;;;;;;-7.66;63.40;102988.75;1698151;83;26507;-62
2022/01/13 07:28:57;;;;;;;54.75;24.30;;;;;;;-7.64;63.42;102980.97;1696466;83;26450;-62
2022/01/13 07:31:25;;;;;;;51.73;20.72;;;;;;;-7.60;63.41;102983.69;1710257;83;28140;-62
2022/01/13 07:33:51;;;;;;;53.40;23.80;;;;;;;-7.53;63.32;102992.56;1694694;83;25675;-62
2022/01/13 07:36:18;;;;;;;57.38;25.10;;;;;;;-7.46;63.21;103011.86;1699119;83;25716;-64
2022/01/13 07:38:45;;;;;;;52.90;24.50;;;;;;;-7.41;63.21;102995.87;1723110;81;26967;-62
2022/01/13 07:41:13;;;;;;;60.40;21.87;;;;;;;-7.31;63.20;102995.63;1715608;83;25680;-64
2022/01/13 07:43:47;;;;;;;52.13;22.52;;;;;;;-7.25;63.04;102988.80;1697486;84;27473;-61
2022/01/13 07:46:09;;;;;;;58.50;25.32;;;;;;;-7.14;62.94;102978.55;1700384;84;25778;-61
2022/01/13 07:48:36;;;;;;;52.83;24.35;;;;;;;-6.97;63.00;102970.16;1710680;83;25814;-61
2022/01/13 07:51:03;;;;;;;50.50;24.82;;;;;;;-6.84;62.85;102970.88;1711596;82;25878;-63
2022/01/13 07:53:30;;;;;;;55.50;24.05;;;;;;;-6.66;62.73;102970.33;1701067;83;25801;-61
2022/01/13 07:55:59;;;;;;;58.35;23.87;;;;;;;-6.55;62.39;102961.79;1727122;83;27550;-62
2022/01/13 07:58:28;;;;;;;51.70;23.25;;;;;;;-6.42;62.27;102974.27;1701883;83;25731;-63
2022/01/13 08:00:54;;;;;;;62.78;27.37;;;;;;;-6.29;62.13;102985.84;1696536;83;25800;-63
2022/01/13 08:03:21;;;;;;;54.88;24.52;;;;;;;-6.23;61.17;102984.62;1688042;83;25795;-61
2022/01/13 08:05:48;;;;;;;56.95;25.75;;;;;;;-6.16;61.01;102974.69;1737351;81;25709;-63
2022/01/13 08:08:15;;;;;;;55.25;25.52;;;;;;;-6.11;60.80;102969.97;1720542;81;27579;-63
2022/01/13 08:10:41;;;;;;;51.25;24.23;;;;;;;-6.09;60.33;102973.47;1702363;83;25850;-60
2022/01/13 08:13:10;;;;;;;58.68;24.18;;;;;;;-6.06;60.38;102969.19;1724714;81;25717;-63
2022/01/13 08:15:37;;;;;;;62.03;26.55;;;;;;;-6.01;60.28;102970.13;1714947;83;25811;-63
2022/01/13 08:20:49;;;;;;;59.55;23.50;;;;;;;-5.78;60.33;102967.38;1759585;81;27537;-62
2022/01/13 08:23:16;;;;;;;59.60;24.02;;;;;;;-5.64;59.84;102967.59;1723422;82;25929;-62
2022/01/13 08:25:43;;;;;;;53.65;24.63;;;;;;;-5.52;59.72;102966.46;1719546;83;25851;-62
2022/01/13 08:28:11;;;;;;;53.50;25.17;;;;;;;-5.37;60.03;102957.48;1720318;82;25869;-62
2022/01/13 08:30:40;;;;;;;64.92;25.35;;;;;;;-5.15;59.80;102951.61;1708920;83;25724;-62
2022/01/13 08:33:07;;;;;;;65.28;26.40;;;;;;;-4.93;59.96;102953.61;1752892;80;27474;-62
2022/01/13 08:35:34;;;;;;;59.98;27.02;;;;;;;-4.68;59.97;102957.84;1701538;82;25725;-62
2022/01/13 08:38:15;;;;;;;56.35;27.60;;;;;;;-4.36;59.54;102947.19;1703500;82;25755;-62
2022/01/13 08:40:35;;;;;;;55.48;25.77;;;;;;;-3.94;57.70;102963.72;1771827;80;26372;-63
2022/01/13 08:43:03;;;;;;;49.83;22.27;;;;;;;-3.34;56.34;102964.55;1751520;80;26021;-62
2022/01/13 08:45:30;;;;;;;55.58;23.50;;;;;;;-2.59;54.86;102947.64;1770129;80;27518;-62
2022/01/13 08:47:57;;;;;;;73.28;25.92;;;;;;;-2.04;54.00;102938.89;1774570;80;25829;-62
2022/01/13 08:50:23;;;;;;;66.62;29.37;;;;;;;-1.37;52.97;102940.92;1774636;80;25733;-62
2022/01/13 08:52:51;;;;;;;59.23;27.58;;;;;;;-0.81;52.56;102926.13;1769754;80;26156;-62
2022/01/13 08:55:18;;;;;;;67.55;30.88;;;;;;;-0.23;52.66;102912.91;1762500;81;25782;-62
2022/01/13 08:57:45;;;;;;;61.02;26.15;;;;;;;0.22;50.61;102906.31;1710508;83;27473;-62
2022/01/13 09:00:14;;;;;;;62.05;24.47;;;;;;;0.72;49.27;102895.55;1714251;83;27252;-62
2022/01/13 09:02:43;;;;;;;49.63;26.30;;;;;;;1.04;46.82;102891.59;1705948;82;25817;-62
2022/01/13 09:05:12;;;;;;;49.98;28.47;;;;;;;1.17;47.75;102875.06;1692481;83;25776;-62
2022/01/13 09:07:40;;;;;;;57.98;24.70;;;;;;;1.41;44.67;102872.91;1687802;83;25830;-63
2022/01/13 09:10:09;;;;;;;48.92;25.72;;;;;;;1.81;46.72;102865.61;1697337;83;27459;-63
2022/01/13 09:12:36;;;;;;;51.88;23.85;;;;;;;2.11;44.14;102855.30;1670165;83;25778;-62
2022/01/13 09:16:14;;;;;;;48.02;23.65;;;;;;;2.28;42.89;102841.70;1708088;83;25749;-62
2022/01/13 09:17:51;;;;;;;42.35;23.02;;;;;;;2.37;42.95;102841.97;1699887;83;25705;-63
2022/01/13 09:20:17;;;;;;;47.27;24.52;;;;;;;2.51;41.01;102836.34;1711915;83;25758;-63
2022/01/13 09:22:44;;;;;;;36.00;21.17;;;;;;;2.45;41.43;102820.54;1697193;83;27871;-62
2022/01/13 09:25:12;;;;;;;41.60;19.90;;;;;;;2.85;43.74;102809.03;1713257;81;25857;-63
2022/01/13 09:27:41;;;;;;;40.43;20.25;;;;;;;3.23;41.84;102792.58;1682780;84;25737;-63
2022/01/13 09:30:12;;;;;;;48.15;23.77;;;;;;;3.36;40.77;102797.59;1680629;84;26419;-63
2022/01/13 09:32:40;;;;;;;42.13;20.37;;;;;;;3.36;41.41;102789.14;1679636;85;25484;-63
2022/01/13 09:35:08;;;;;;;33.42;17.65;;;;;;;3.37;39.35;102792.23;1643405;86;28344;-63
2022/01/13 09:37:37;;;;;;;40.98;19.55;;;;;;;3.39;39.11;102787.75;1623554;86;25779;-62
2022/01/13 09:40:09;;;;;;;36.55;18.65;;;;;;;3.44;38.92;102787.62;1667075;84;25824;-63
2022/01/13 09:42:39;;;;;;;34.73;16.65;;;;;;;3.43;39.90;102778.78;1662391;85;25672;-62
2022/01/13 09:45:08;;;;;;;29.23;16.62;;;;;;;3.74;38.06;102784.59;1667029;84;25754;-63
2022/01/13 09:47:35;;;;;;;34.18;17.75;;;;;;;4.20;40.49;102769.11;1664628;85;27483;-63
2022/01/13 09:50:10;;;;;;;30.00;15.70;;;;;;;4.72;40.84;102768.86;1665869;84;25897;-64
2022/01/13 09:52:40;;;;;;;28.45;17.02;;;;;;;4.80;35.71;102766.38;1669371;84;25761;-63
2022/01/13 09:55:10;;;;;;;33.92;18.82;;;;;;;4.65;35.42;102767.73;1663381;85;25810;-62
2022/01/13 09:57:49;;;;;;;50.98;18.52;;;;;;;4.70;36.00;102768.48;1658744;85;26011;-62
2022/01/13 10:00:21;;;;;;;40.55;19.67;;;;;;;4.98;37.57;102765.36;1680363;83;28135;-62
2022/01/13 10:02:49;;;;;;;32.17;18.05;;;;;;;5.09;35.09;102769.89;1708160;83;26325;-63
2022/01/13 10:05:18;;;;;;;31.12;18.10;;;;;;;5.16;35.97;102761.20;1763587;80;25774;-62
2022/01/13 10:07:49;;;;;;;32.25;17.37;;;;;;;5.33;35.23;102767.30;1748400;81;25782;-62
2022/01/13 10:10:24;;;;;;;30.72;16.87;;;;;;;5.72;35.02;102769.50;1743132;81;25756;-63
2022/01/13 10:13:04;;;;;;;31.62;17.37;;;;;;;5.85;34.91;102768.59;1722365;82;27483;-63
2022/01/13 10:18:45;;;;;;;30.70;17.05;;;;;;;5.76;33.61;102767.59;1741464;82;25668;-62
2022/01/13 10:21:19;;;;;;;33.02;16.25;;;;;;;5.96;32.17;102769.05;1755518;81;25839;-63
2022/01/13 10:24:09;;;;;;;27.35;15.88;;;;;;;5.46;32.48;102757.07;1752244;80;25989;-62
2022/01/13 10:26:37;;;;;;;33.95;17.02;;;;;;;5.37;34.55;102758.28;1705301;83;27429;-62
2022/01/13 10:29:07;;;;;;;37.70;19.12;;;;;;;5.25;33.86;102753.36;1706763;83;25844;-62
2022/01/13 10:31:52;;;;;;;31.82;17.25;;;;;;;4.95;33.10;102746.34;1721372;82;25888;-62
2022/01/13 10:34:27;;;;;;;37.88;18.65;;;;;;;4.52;34.72;102751.25;1704851;83;26633;-62
2022/01/13 10:37:11;;;;;;;34.08;18.70;;;;;;;4.79;34.94;102749.97;1705599;82;25797;-62
2022/01/13 10:39:59;;;;;;;29.90;18.37;;;;;;;4.91;35.32;102730.02;1707779;83;28362;-63
2022/01/13 10:45:35;;;;;;;32.28;18.25;;;;;;;4.28;34.74;102716.91;1725902;82;37334;-61
2022/01/13 10:48:07;;;;;;;38.13;19.45;;;;;;;3.67;34.84;102718.28;1686533;82;25824;-60
2022/01/13 10:50:42;;;;;;;30.32;17.52;;;;;;;3.11;35.54;102715.31;1698358;83;25727;-61
2022/01/13 10:53:17;;;;;;;35.28;17.82;;;;;;;2.73;36.06;102715.84;1685619;84;27474;-61
2022/01/13 10:55:50;;;;;;;38.73;18.32;;;;;;;2.26;36.91;102708.05;1702863;84;25463;-62
2022/01/13 10:58:21;;;;;;;34.15;18.10;;;;;;;2.34;37.94;102694.61;1704867;82;25669;-62
2022/01/13 11:00:51;;;;;;;35.38;18.02;;;;;;;2.47;37.18;102684.09;1712403;83;26419;-61
2022/01/13 11:03:22;;;;;;;32.33;18.20;;;;;;;2.38;36.79;102681.66;1667305;84;25744;-61
2022/01/13 11:05:56;;;;;;;35.85;17.80;;;;;;;2.37;37.32;102677.28;1680510;84;27491;-60
2022/01/13 11:08:40;;;;;;;36.55;18.70;;;;;;;2.28;36.42;102670.39;1679964;84;25807;-60
2022/01/13 11:11:04;;;;;;;42.23;19.02;;;;;;;2.48;37.48;102661.08;1712256;83;25756;-61
2022/01/13 11:13:39;;;;;;;37.30;18.35;;;;;;;3.58;37.88;102653.75;1712667;83;25896;-61
2022/01/13 11:16:05;;;;;;;31.90;17.70;;;;;;;4.57;36.28;102647.16;1681001;83;25829;-60
2022/01/13 11:18:34;;;;;;;36.50;17.98;;;;;;;5.21;33.12;102643.63;1701285;81;28157;-60
2022/01/13 11:21:03;;;;;;;37.50;17.75;;;;;;;5.90;34.41;102641.06;1714604;80;25495;-61
2022/01/13 11:23:34;;;;;;;39.73;16.17;;;;;;;6.76;35.24;102638.99;1693533;83;25753;-62
2022/01/13 11:26:01;;;;;;;34.05;17.77;;;;;;;7.72;32.33;102643.66;1750331;81;25892;-61
2022/01/13 11:28:30;;;;;;;37.20;15.88;;;;;;;8.19;30.69;102626.25;1727567;82;25938;-60
2022/01/13 11:30:57;;;;;;;30.95;17.17;;;;;;;8.21;29.40;102611.41;1712461;83;27498;-60
2022/01/13 11:33:24;;;;;;;28.77;16.80;;;;;;;8.12;30.36;102604.22;1707837;83;25834;-63
2022/01/13 11:35:56;;;;;;;32.50;15.45;;;;;;;7.55;29.23;102603.40;1708019;84;25828;-62
2022/01/13 11:38:28;;;;;;;29.20;17.12;;;;;;;6.79;31.05;102595.59;1708014;83;26620;-62
2022/01/13 11:41:02;;;;;;;30.32;17.82;;;;;;;5.93;30.61;102594.65;1702965;84;26130;-62
2022/01/13 11:43:35;;;;;;;29.85;17.30;;;;;;;4.90;31.51;102601.59;1736372;80;27492;-62